createdAt,value
2023-04-21T00:01:08.597Z,9.38
2023-04-21T00:03:38.621Z,9.28
2023-04-21T00:06:12.468Z,9.28
2023-04-21T00:08:40.724Z,9.28
2023-04-21T00:11:08.554Z,9.26
2023-04-21T00:13:36.720Z,9.20
2023-04-21T00:16:04.157Z,9.16
2023-04-21T00:18:31.788Z,9.08
2023-04-21T00:20:58.863Z,9.05
2023-04-21T00:23:25.933Z,8.95
2023-04-21T00:25:53.669Z,9.06
2023-04-21T00:28:20.758Z,9.00
2023-04-21T00:30:47.863Z,8.96
2023-04-21T00:33:15.084Z,8.69
2023-04-21T00:35:42.149Z,8.86
2023-04-21T00:38:09.204Z,8.76
2023-04-21T00:40:36.668Z,8.82
2023-04-21T00:43:08.218Z,8.87
2023-04-21T00:45:36.202Z,8.83
2023-04-21T00:48:03.418Z,8.83
2023-04-21T00:50:30.591Z,8.74
2023-04-21T00:52:59.572Z,8.75
2023-04-21T00:55:26.961Z,8.79
2023-04-21T00:57:56.477Z,8.67
2023-04-21T01:00:28.127Z,8.72
2023-04-21T01:02:56.998Z,8.71
2023-04-21T01:05:24.111Z,8.80
2023-04-21T01:07:51.254Z,8.75
2023-04-21T01:10:18.356Z,8.68
2023-04-21T01:12:47.832Z,8.61
2023-04-21T01:15:17.501Z,8.62
2023-04-21T01:17:45.419Z,8.44
2023-04-21T01:20:15.410Z,8.45
2023-04-21T01:22:44.755Z,8.50
2023-04-21T01:25:12.057Z,8.48
2023-04-21T01:27:39.124Z,8.41
2023-04-21T01:30:09.045Z,8.33
2023-04-21T01:32:36.408Z,8.30
2023-04-21T01:35:03.849Z,8.25
2023-04-21T01:37:34.053Z,8.36
2023-04-21T01:40:05.469Z,8.32
2023-04-21T01:42:35.784Z,8.33
2023-04-21T01:45:03.516Z,8.22
2023-04-21T01:47:33.131Z,8.16
2023-04-21T01:50:00.359Z,8.10
2023-04-21T01:52:27.387Z,8.01
2023-04-21T01:54:55.294Z,7.90
2023-04-21T01:57:22.321Z,7.87
2023-04-21T01:59:51.082Z,7.86
2023-04-21T02:02:18.274Z,7.59
2023-04-21T02:04:45.364Z,7.74
2023-04-21T02:07:12.385Z,7.72
2023-04-21T02:09:41.078Z,7.72
2023-04-21T02:12:08.259Z,7.67
2023-04-21T02:14:37.616Z,6.75
2023-04-21T02:17:07.992Z,7.47
2023-04-21T02:19:35.127Z,7.56
2023-04-21T02:22:02.195Z,7.15
2023-04-21T02:24:29.211Z,7.43
2023-04-21T02:26:58.678Z,7.46
2023-04-21T02:29:28.858Z,7.46
2023-04-21T02:32:03.119Z,7.37
2023-04-21T02:34:38.583Z,7.49
2023-04-21T02:37:06.497Z,7.49
2023-04-21T02:39:33.646Z,7.47
2023-04-21T02:42:01.874Z,7.45
2023-04-21T02:44:28.959Z,7.46
2023-04-21T02:46:56.052Z,7.41
2023-04-21T02:49:23.276Z,7.50
2023-04-21T02:51:50.598Z,7.42
2023-04-21T02:54:17.664Z,7.49
2023-04-21T02:56:44.846Z,7.53
2023-04-21T02:59:16.711Z,7.32
2023-04-21T03:01:44.053Z,7.50
2023-04-21T03:04:11.170Z,7.53
2023-04-21T03:06:38.810Z,7.67
2023-04-21T03:09:06.201Z,7.68
2023-04-21T03:11:33.338Z,7.87
2023-04-21T03:14:00.440Z,8.08
2023-04-21T03:16:28.144Z,8.10
2023-04-21T03:18:55.563Z,8.43
2023-04-21T03:21:22.647Z,8.56
2023-04-21T03:23:49.685Z,8.69
2023-04-21T03:26:16.937Z,8.77
2023-04-21T03:28:43.930Z,8.81
2023-04-21T03:31:11.038Z,8.59
2023-04-21T03:33:38.121Z,8.96
2023-04-21T03:36:05.453Z,8.90
2023-04-21T03:38:32.463Z,9.03
2023-04-21T03:40:59.472Z,9.25
2023-04-21T03:43:26.909Z,9.59
2023-04-21T03:45:53.991Z,9.84
2023-04-21T03:48:21.262Z,10.11
2023-04-21T03:50:48.356Z,10.27
2023-04-21T03:53:15.375Z,10.66
2023-04-21T03:55:42.329Z,10.77
2023-04-21T03:58:09.333Z,10.88
2023-04-21T04:00:36.428Z,11.22
2023-04-21T04:03:03.639Z,11.19
2023-04-21T04:05:31.161Z,11.41
2023-04-21T04:07:58.331Z,11.42
2023-04-21T04:10:25.383Z,11.40
2023-04-21T04:12:52.518Z,11.37
2023-04-21T04:15:20.224Z,11.33
2023-04-21T04:17:47.667Z,11.66
2023-04-21T04:20:15.326Z,12.05
2023-04-21T04:22:42.543Z,12.51
2023-04-21T04:25:09.827Z,12.92
2023-04-21T04:27:37.072Z,13.14
2023-04-21T04:30:06.021Z,13.27
2023-04-21T04:32:34.225Z,13.12
2023-04-21T04:35:01.401Z,12.78
2023-04-21T04:37:29.348Z,12.77
2023-04-21T04:39:59.781Z,12.75
2023-04-21T04:42:27.028Z,13.03
2023-04-21T04:44:54.550Z,13.26
2023-04-21T04:47:21.924Z,13.40
2023-04-21T04:49:49.290Z,13.47
2023-04-21T04:52:16.361Z,13.64
2023-04-21T04:54:43.370Z,13.66
2023-04-21T04:57:10.553Z,14.04
2023-04-21T04:59:37.861Z,14.23
2023-04-21T05:02:05.014Z,14.33
2023-04-21T05:04:32.518Z,14.41
2023-04-21T05:06:59.639Z,14.14
2023-04-21T05:09:26.895Z,14.12
2023-04-21T05:11:54.418Z,14.27
2023-04-21T05:14:21.667Z,14.38
2023-04-21T05:16:48.886Z,14.62
2023-04-21T05:19:18.087Z,14.83
2023-04-21T05:21:46.012Z,14.85
2023-04-21T05:24:13.144Z,14.87
2023-04-21T05:26:40.190Z,15.05
2023-04-21T05:29:07.238Z,15.36
2023-04-21T05:31:35.005Z,15.52
2023-04-21T05:34:02.295Z,15.46
2023-04-21T05:36:30.610Z,15.36
2023-04-21T05:38:57.780Z,16.01
2023-04-21T05:41:24.888Z,16.34
2023-04-21T05:43:51.954Z,16.59
2023-04-21T05:46:21.613Z,16.35
2023-04-21T05:48:48.978Z,16.53
2023-04-21T05:51:16.222Z,16.64
2023-04-21T05:53:44.759Z,16.80
2023-04-21T05:56:13.030Z,16.81
2023-04-21T05:58:40.278Z,17.09
2023-04-21T06:01:07.954Z,17.30
2023-04-21T06:03:35.160Z,17.31
2023-04-21T06:06:04.918Z,17.61
2023-04-21T06:08:32.711Z,17.93
2023-04-21T06:10:59.828Z,18.69
2023-04-21T06:13:28.062Z,19.68
2023-04-21T06:15:55.612Z,20.44
2023-04-21T06:18:24.239Z,21.54
2023-04-21T06:20:55.478Z,22.51
2023-04-21T06:23:22.735Z,23.60
2023-04-21T06:26:05.161Z,24.17
2023-04-21T06:28:33.224Z,25.36
2023-04-21T06:31:01.723Z,26.33
2023-04-21T06:33:29.990Z,26.54
2023-04-21T06:35:57.077Z,25.59
2023-04-21T06:38:24.086Z,24.36
2023-04-21T06:40:51.339Z,23.73
2023-04-21T06:43:18.322Z,23.90
2023-04-21T06:45:45.393Z,24.29
2023-04-21T06:48:12.600Z,24.59
2023-04-21T06:50:39.966Z,24.36
2023-04-21T06:53:07.075Z,23.63
2023-04-21T06:55:34.199Z,22.58
2023-04-21T06:58:01.364Z,22.80
2023-04-21T07:00:28.722Z,23.10
2023-04-21T07:02:55.855Z,23.78
2023-04-21T07:05:23.051Z,24.39
2023-04-21T07:07:50.157Z,24.85
2023-04-21T07:10:20.036Z,24.88
2023-04-21T07:12:47.521Z,25.25
2023-04-21T07:15:14.527Z,25.01
2023-04-21T07:17:41.584Z,24.85
2023-04-21T07:20:09.248Z,24.76
2023-04-21T07:22:36.803Z,24.74
2023-04-21T07:25:06.558Z,24.82
2023-04-21T07:27:34.845Z,25.10
2023-04-21T07:30:01.947Z,25.62
2023-04-21T07:32:31.618Z,25.46
2023-04-21T07:34:58.876Z,25.35
2023-04-21T07:37:27.241Z,25.29
2023-04-21T07:39:54.264Z,25.05
2023-04-21T07:42:21.403Z,25.10
2023-04-21T07:44:49.113Z,25.16
2023-04-21T07:47:16.706Z,24.92
2023-04-21T07:49:43.835Z,24.56
2023-04-21T07:52:10.886Z,24.49
2023-04-21T07:54:37.870Z,25.08
2023-04-21T07:57:04.932Z,25.52
2023-04-21T07:59:32.005Z,25.71
2023-04-21T08:01:59.117Z,25.63
2023-04-21T08:04:26.794Z,25.38
2023-04-21T08:06:54.510Z,24.60
2023-04-21T08:09:21.830Z,24.17
2023-04-21T08:11:49.067Z,23.89
2023-04-21T08:14:16.409Z,24.19
2023-04-21T08:16:43.666Z,24.36
2023-04-21T08:19:10.959Z,24.50
2023-04-21T08:21:37.975Z,24.73
2023-04-21T08:24:05.399Z,25.20
2023-04-21T08:26:34.006Z,25.31
2023-04-21T08:29:04.035Z,24.94
2023-04-21T08:31:31.785Z,24.83
2023-04-21T08:34:02.739Z,24.74
2023-04-21T08:36:31.991Z,24.70
2023-04-21T08:38:59.340Z,24.55
2023-04-21T08:41:26.842Z,24.80
2023-04-21T08:43:53.935Z,25.25
2023-04-21T08:46:21.944Z,25.71
2023-04-21T08:48:49.361Z,25.49
2023-04-21T08:51:22.744Z,25.43
2023-04-21T08:53:50.450Z,25.71
2023-04-21T08:56:17.645Z,25.68
2023-04-21T08:58:44.757Z,25.95
2023-04-21T09:01:12.335Z,26.18
2023-04-21T09:03:39.618Z,26.05
2023-04-21T09:06:09.414Z,26.36
2023-04-21T09:08:43.818Z,27.00
2023-04-21T09:11:14.586Z,27.05
2023-04-21T09:13:43.978Z,27.00
2023-04-21T09:16:22.587Z,26.87
2023-04-21T09:18:50.402Z,27.86
2023-04-21T09:21:19.809Z,28.77
2023-04-21T09:23:51.962Z,29.58
2023-04-21T09:26:24.132Z,30.07
2023-04-21T09:28:52.401Z,29.89
2023-04-21T09:31:22.064Z,29.34
2023-04-21T09:33:58.345Z,28.68
2023-04-21T09:36:29.487Z,29.29
2023-04-21T09:39:20.697Z,29.84
2023-04-21T09:41:45.758Z,30.26
2023-04-21T09:44:12.859Z,30.33
2023-04-21T09:46:44.721Z,30.75
2023-04-21T09:49:16.950Z,30.52
2023-04-21T09:52:10.357Z,29.87
2023-04-21T09:54:33.662Z,28.71
2023-04-21T09:57:03.825Z,28.66
2023-04-21T09:59:40.976Z,28.34
2023-04-21T10:02:09.898Z,27.93
2023-04-21T10:04:39.014Z,27.23
2023-04-21T10:07:07.191Z,26.37
2023-04-21T10:09:41.812Z,25.51
2023-04-21T10:12:10.469Z,24.67
2023-04-21T10:14:37.614Z,24.29
2023-04-21T10:17:06.630Z,23.86
2023-04-21T10:19:39.675Z,23.48
2023-04-21T10:22:09.099Z,23.24
2023-04-21T10:24:40.536Z,23.09
2023-04-21T10:27:12.793Z,22.78
2023-04-21T10:29:52.787Z,22.70
2023-04-21T10:32:55.215Z,22.62
2023-04-21T10:35:23.464Z,22.40
2023-04-21T10:37:54.370Z,21.81
2023-04-21T10:40:43.178Z,21.30
2023-04-21T10:43:51.109Z,21.11
2023-04-21T10:46:38.093Z,21.36
2023-04-21T10:49:31.587Z,21.43
2023-04-21T10:51:59.357Z,21.38
2023-04-21T10:54:28.419Z,21.18
2023-04-21T10:56:59.448Z,21.26
2023-04-21T10:59:29.319Z,21.12
2023-04-21T11:01:57.266Z,20.77
2023-04-21T11:04:24.877Z,20.68
2023-04-21T11:07:13.034Z,20.54
2023-04-21T11:09:41.861Z,20.28
2023-04-21T11:12:11.620Z,20.28
2023-04-21T11:14:41.138Z,20.20
2023-04-21T11:17:12.976Z,20.26
2023-04-21T11:19:40.609Z,20.19
2023-04-21T11:22:07.986Z,20.29
2023-04-21T11:24:35.095Z,20.46
2023-04-21T11:27:02.412Z,20.66
2023-04-21T11:29:29.923Z,20.71
2023-04-21T11:31:59.091Z,20.91
2023-04-21T11:34:26.663Z,21.00
2023-04-21T11:36:54.164Z,20.93
2023-04-21T11:39:22.352Z,20.82
2023-04-21T11:41:52.713Z,20.66
2023-04-21T11:44:34.052Z,20.51
2023-04-21T11:47:12.151Z,20.43
2023-04-21T11:49:46.506Z,20.52
2023-04-21T11:52:27.943Z,20.57
2023-04-21T11:55:06.628Z,20.55
2023-04-21T11:57:34.390Z,20.27
2023-04-21T12:00:03.720Z,20.59
2023-04-21T12:02:35.529Z,20.56
2023-04-21T12:05:11.243Z,20.49
2023-04-21T12:07:42.713Z,20.43
2023-04-21T12:10:29.961Z,20.56
2023-04-21T12:12:57.482Z,20.46
2023-04-21T12:15:24.531Z,20.36
2023-04-21T12:17:54.045Z,20.26
2023-04-21T12:20:23.490Z,20.34
2023-04-21T12:22:51.033Z,20.29
2023-04-21T12:25:18.508Z,20.19
2023-04-21T12:27:50.227Z,20.04
2023-04-21T12:30:17.392Z,19.96
2023-04-21T12:32:44.771Z,19.96
2023-04-21T12:35:11.945Z,20.28
2023-04-21T12:37:39.061Z,20.17
2023-04-21T12:40:08.063Z,19.86
2023-04-21T12:42:37.504Z,19.76
2023-04-21T12:45:06.597Z,20.04
2023-04-21T12:47:34.742Z,19.88
2023-04-21T12:50:01.907Z,19.86
2023-04-21T12:52:32.530Z,19.58
2023-04-21T12:54:59.697Z,19.34
2023-04-21T12:57:27.001Z,19.15
2023-04-21T12:59:54.127Z,19.11
2023-04-21T13:02:21.276Z,18.99
2023-04-21T13:04:48.471Z,18.81
2023-04-21T13:07:16.399Z,18.73
2023-04-21T13:09:43.754Z,18.69
2023-04-21T13:12:10.715Z,18.69
2023-04-21T13:14:37.713Z,18.66
2023-04-21T13:17:05.416Z,18.56
2023-04-21T13:19:32.698Z,18.45
2023-04-21T13:22:00.064Z,18.52
2023-04-21T13:24:27.313Z,18.43
2023-04-21T13:26:54.777Z,18.51
2023-04-21T13:29:21.844Z,18.61
2023-04-21T13:31:48.853Z,18.49
2023-04-21T13:34:15.954Z,18.45
2023-04-21T13:36:43.056Z,18.43
2023-04-21T13:39:11.846Z,18.43
2023-04-21T13:41:39.032Z,18.41
2023-04-21T13:44:06.373Z,18.54
2023-04-21T13:46:33.694Z,18.57
2023-04-21T13:49:01.009Z,18.51
2023-04-21T13:51:30.170Z,18.51
2023-04-21T13:53:57.258Z,18.46
2023-04-21T13:56:24.756Z,18.36
2023-04-21T13:58:51.945Z,18.33
2023-04-21T14:01:21.373Z,18.40
2023-04-21T14:03:49.345Z,18.44
2023-04-21T14:06:17.410Z,18.48
2023-04-21T14:08:44.550Z,18.44
2023-04-21T14:11:11.572Z,18.50
2023-04-21T14:13:47.762Z,18.38
2023-04-21T14:16:25.785Z,18.39
2023-04-21T14:18:52.860Z,18.40
2023-04-21T14:21:19.920Z,18.38
2023-04-21T14:23:47.065Z,18.42
2023-04-21T14:26:14.210Z,18.40
2023-04-21T14:28:41.801Z,18.37
2023-04-21T14:31:09.018Z,18.38
2023-04-21T14:33:36.177Z,18.27
2023-04-21T14:36:03.631Z,18.25
2023-04-21T14:38:30.941Z,18.18
2023-04-21T14:40:58.035Z,18.21
2023-04-21T14:43:25.140Z,18.20
2023-04-21T14:45:52.909Z,18.05
2023-04-21T14:48:21.301Z,17.90
2023-04-21T14:50:48.593Z,17.86
2023-04-21T14:53:15.776Z,18.04
2023-04-21T14:55:42.921Z,18.06
2023-04-21T14:58:10.038Z,18.09
2023-04-21T15:00:38.829Z,18.08
2023-04-21T15:03:05.952Z,18.07
2023-04-21T15:05:34.840Z,17.97
2023-04-21T15:08:02.449Z,17.94
2023-04-21T15:10:31.082Z,17.82
2023-04-21T15:12:58.620Z,17.77
2023-04-21T15:15:25.745Z,17.61
2023-04-21T15:17:52.763Z,17.57
2023-04-21T15:20:26.622Z,17.53
2023-04-21T15:22:59.922Z,17.47
2023-04-21T15:25:27.141Z,17.52
2023-04-21T15:27:54.113Z,17.39
2023-04-21T15:30:21.213Z,17.32
2023-04-21T15:32:48.308Z,17.32
2023-04-21T15:35:15.464Z,16.86
2023-04-21T15:37:42.661Z,17.13
2023-04-21T15:40:10.308Z,17.07
2023-04-21T15:42:37.360Z,17.00
2023-04-21T15:45:04.721Z,16.76
2023-04-21T15:47:33.729Z,16.79
2023-04-21T15:50:00.849Z,16.83
2023-04-21T15:52:28.617Z,16.78
2023-04-21T15:54:55.765Z,16.73
2023-04-21T15:57:24.322Z,16.82
2023-04-21T15:59:51.445Z,16.83
2023-04-21T16:02:18.653Z,16.85
2023-04-21T16:04:46.214Z,16.82
2023-04-21T16:07:13.672Z,16.68
2023-04-21T16:09:41.367Z,16.74
2023-04-21T16:12:10.462Z,16.77
2023-04-21T16:14:53.423Z,16.75
2023-04-21T16:17:25.630Z,16.61
2023-04-21T16:19:53.880Z,16.70
2023-04-21T16:22:21.056Z,16.60
2023-04-21T16:24:48.680Z,16.63
2023-04-21T16:27:15.983Z,16.58
2023-04-21T16:29:43.303Z,16.51
2023-04-21T16:32:10.590Z,16.44
2023-04-21T16:34:37.977Z,16.56
2023-04-21T16:37:05.484Z,16.52
2023-04-21T16:39:32.593Z,16.41
2023-04-21T16:41:59.878Z,16.39
2023-04-21T16:44:26.911Z,16.45
2023-04-21T16:46:54.192Z,16.44
2023-04-21T16:49:21.351Z,16.36
2023-04-21T16:51:48.522Z,16.22
2023-04-21T16:54:15.600Z,16.23
2023-04-21T16:56:42.613Z,16.21
2023-04-21T16:59:09.618Z,15.96
2023-04-21T17:01:36.833Z,16.05
2023-04-21T17:04:04.104Z,16.08
2023-04-21T17:06:32.041Z,16.14
2023-04-21T17:09:01.931Z,15.96
2023-04-21T17:11:30.102Z,16.02
2023-04-21T17:13:57.163Z,16.02
2023-04-21T17:16:24.418Z,16.01
2023-04-21T17:18:51.457Z,16.00
2023-04-21T17:21:18.458Z,15.90
2023-04-21T17:23:45.484Z,15.95
2023-04-21T17:26:13.261Z,15.89
2023-04-21T17:28:40.546Z,15.78
2023-04-21T17:31:14.526Z,15.84
2023-04-21T17:33:44.353Z,15.78
2023-04-21T17:36:12.444Z,15.70
2023-04-21T17:38:39.984Z,15.59
2023-04-21T17:41:07.833Z,15.62
2023-04-21T17:43:34.880Z,15.51
2023-04-21T17:46:02.027Z,15.49
2023-04-21T17:48:29.117Z,15.44
2023-04-21T17:50:56.179Z,15.37
2023-04-21T17:53:23.264Z,15.35
2023-04-21T17:55:51.106Z,15.23
2023-04-21T17:58:18.655Z,15.18
2023-04-21T18:00:45.638Z,14.92
2023-04-21T18:03:12.863Z,15.06
2023-04-21T18:05:40.312Z,15.01
2023-04-21T18:08:07.685Z,15.04
2023-04-21T18:10:35.982Z,14.94
2023-04-21T18:13:03.217Z,14.82
2023-04-21T18:15:30.569Z,14.82
2023-04-21T18:17:57.702Z,14.79
2023-04-21T18:20:25.064Z,14.76
2023-04-21T18:22:54.184Z,14.61
2023-04-21T18:25:38.334Z,14.62
2023-04-21T18:28:08.308Z,14.55
2023-04-21T18:30:35.383Z,14.57
2023-04-21T18:33:02.557Z,14.50
2023-04-21T18:35:29.717Z,14.39
2023-04-21T18:37:56.813Z,14.37
2023-04-21T18:40:24.095Z,14.30
2023-04-21T18:42:51.111Z,14.33
2023-04-21T18:45:18.674Z,14.24
2023-04-21T18:47:48.672Z,14.05
2023-04-21T18:50:15.809Z,14.07
2023-04-21T18:52:42.849Z,13.79
2023-04-21T18:55:10.328Z,13.98
2023-04-21T18:57:37.419Z,13.94
2023-04-21T19:00:05.101Z,13.93
2023-04-21T19:02:33.787Z,14.02
2023-04-21T19:05:01.324Z,13.98
2023-04-21T19:07:31.813Z,13.79
2023-04-21T19:09:58.789Z,13.92
2023-04-21T19:12:27.074Z,13.96
2023-04-21T19:14:54.375Z,13.99
2023-04-21T19:17:22.051Z,13.97
2023-04-21T19:19:49.663Z,13.89
2023-04-21T19:22:16.964Z,13.86
2023-04-21T19:24:43.993Z,13.87
2023-04-21T19:27:11.204Z,13.88
2023-04-21T19:29:38.392Z,13.82
2023-04-21T19:32:05.667Z,13.56
2023-04-21T19:34:32.766Z,13.79
2023-04-21T19:37:00.010Z,13.76
2023-04-21T19:39:27.930Z,13.75
2023-04-21T19:41:56.096Z,13.75
2023-04-21T19:44:23.153Z,13.73
2023-04-21T19:46:51.275Z,13.04
2023-04-21T19:49:18.376Z,13.68
2023-04-21T19:51:45.446Z,13.66
2023-04-21T19:54:12.657Z,13.61
2023-04-21T19:56:40.802Z,13.33
2023-04-21T19:59:08.080Z,13.22
2023-04-21T20:01:35.287Z,13.26
2023-04-21T20:04:03.755Z,13.51
2023-04-21T20:06:32.119Z,13.14
2023-04-21T20:08:59.526Z,13.40
2023-04-21T20:11:28.956Z,13.43
2023-04-21T20:13:56.523Z,13.30
2023-04-21T20:16:26.312Z,13.31
2023-04-21T20:18:58.413Z,13.21
2023-04-21T20:21:25.708Z,13.25
2023-04-21T20:23:52.779Z,13.20
2023-04-21T20:26:19.850Z,13.17
2023-04-21T20:28:47.489Z,13.10
2023-04-21T20:31:14.802Z,13.07
2023-04-21T20:33:41.896Z,13.04
2023-04-21T20:36:08.878Z,12.97
2023-04-21T20:38:35.996Z,12.92
2023-04-21T20:41:03.453Z,12.83
2023-04-21T20:43:34.267Z,12.87
2023-04-21T20:46:01.900Z,12.83
2023-04-21T20:48:29.219Z,12.57
2023-04-21T20:50:56.542Z,12.75
2023-04-21T20:53:24.059Z,12.37
2023-04-21T20:55:51.546Z,12.67
2023-04-21T20:58:18.816Z,12.68
2023-04-21T21:00:45.914Z,12.75
2023-04-21T21:03:13.931Z,12.72
2023-04-21T21:05:41.553Z,12.79
2023-04-21T21:08:09.201Z,12.81
2023-04-21T21:10:36.421Z,12.73
2023-04-21T21:13:03.979Z,12.75
2023-04-21T21:15:31.265Z,12.69
2023-04-21T21:17:58.837Z,12.65
2023-04-21T21:20:26.182Z,12.63
2023-04-21T21:22:53.388Z,12.61
2023-04-21T21:25:20.494Z,12.48
2023-04-21T21:27:48.379Z,12.51
2023-04-21T21:30:15.574Z,12.56
2023-04-21T21:32:42.911Z,12.45
2023-04-21T21:35:10.529Z,12.53
2023-04-21T21:37:38.256Z,12.49
2023-04-21T21:40:07.164Z,12.62
2023-04-21T21:42:34.409Z,12.68
2023-04-21T21:45:02.126Z,12.73
2023-04-21T21:47:40.284Z,12.76
2023-04-21T21:50:09.492Z,12.77
2023-04-21T21:52:36.501Z,12.69
2023-04-21T21:55:03.680Z,12.62
2023-04-21T21:57:33.248Z,12.65
2023-04-21T22:00:00.654Z,12.63
2023-04-21T22:02:29.131Z,12.62
2023-04-21T22:04:56.621Z,12.58
2023-04-21T22:07:25.165Z,12.51
2023-04-21T22:09:52.739Z,12.39
2023-04-21T22:12:19.884Z,12.36
2023-04-21T22:14:47.209Z,12.33
2023-04-21T22:17:14.605Z,12.35
2023-04-21T22:19:41.939Z,12.32
2023-04-21T22:22:08.934Z,11.63
2023-04-21T22:24:35.905Z,12.29
2023-04-21T22:27:03.060Z,12.25
2023-04-21T22:29:31.027Z,12.21
2023-04-21T22:31:58.580Z,12.12
2023-04-21T22:34:25.641Z,11.97
2023-04-21T22:36:53.537Z,12.01
2023-04-21T22:39:21.051Z,11.99
2023-04-21T22:41:48.097Z,11.97
2023-04-21T22:44:15.052Z,11.95
2023-04-21T22:46:42.920Z,11.88
2023-04-21T22:49:10.048Z,11.82
2023-04-21T22:51:37.054Z,11.75
2023-04-21T22:54:04.391Z,11.65
2023-04-21T22:56:31.695Z,11.66
2023-04-21T22:58:58.809Z,11.61
2023-04-21T23:01:25.893Z,11.39
2023-04-21T23:03:53.068Z,11.38
2023-04-21T23:06:20.227Z,11.36
2023-04-21T23:08:47.285Z,11.27
2023-04-21T23:11:14.476Z,11.26
2023-04-21T23:13:41.532Z,11.22
2023-04-21T23:16:08.559Z,11.11
2023-04-21T23:18:36.041Z,11.08
2023-04-21T23:21:03.251Z,10.91
2023-04-21T23:23:30.314Z,10.92
2023-04-21T23:25:57.343Z,10.88
2023-04-21T23:28:24.635Z,10.80
2023-04-21T23:30:51.763Z,10.66
2023-04-21T23:33:19.093Z,10.91
2023-04-21T23:35:46.148Z,10.90
2023-04-21T23:38:13.212Z,10.64
2023-04-21T23:40:40.377Z,11.01
2023-04-21T23:43:07.769Z,11.01
2023-04-21T23:45:35.040Z,10.95
2023-04-21T23:48:02.207Z,10.90
2023-04-21T23:50:29.354Z,10.50
2023-04-21T23:52:56.580Z,10.72
2023-04-21T23:55:23.641Z,10.71
2023-04-21T23:57:50.587Z,10.72
